createdAt,value
2023-01-26T00:01:09.510Z,70.09
2023-01-26T00:05:14.322Z,70.05
2023-01-26T00:09:17.305Z,69.83
2023-01-26T00:13:22.744Z,70.40
2023-01-26T00:17:29.153Z,70.22
2023-01-26T00:21:33.894Z,69.98
2023-01-26T00:25:40.420Z,69.96
2023-01-26T00:29:44.064Z,70.17
2023-01-26T00:33:47.333Z,70.59
2023-01-26T00:37:52.095Z,70.65
2023-01-26T00:42:14.514Z,70.22
2023-01-26T00:46:17.748Z,70.33
2023-01-26T00:50:20.641Z,70.23
2023-01-26T00:54:25.419Z,70.27
2023-01-26T00:58:29.015Z,69.93
2023-01-26T01:02:32.365Z,70.04
2023-01-26T01:06:35.437Z,70.52
2023-01-26T01:10:40.245Z,69.78
2023-01-26T01:14:43.769Z,70.16
2023-01-26T01:18:47.187Z,70.45
2023-01-26T01:22:52.490Z,70.80
2023-01-26T01:26:57.304Z,70.70
2023-01-26T01:31:00.842Z,70.18
2023-01-26T01:35:04.387Z,70.46
2023-01-26T01:39:07.436Z,70.13
2023-01-26T01:43:13.916Z,70.29
2023-01-26T01:47:26.898Z,70.34
2023-01-26T01:51:35.407Z,70.19
2023-01-26T01:55:39.072Z,70.01
2023-01-26T01:59:47.903Z,70.58
2023-01-26T02:03:55.005Z,70.40
2023-01-26T02:07:58.227Z,70.25
2023-01-26T02:12:03.996Z,69.90
2023-01-26T02:16:08.756Z,70.14
2023-01-26T02:20:22.141Z,70.00
2023-01-26T02:24:30.938Z,70.44
2023-01-26T02:28:35.673Z,70.34
2023-01-26T02:32:38.570Z,70.15
2023-01-26T02:36:41.861Z,69.97
2023-01-26T02:40:50.035Z,70.50
2023-01-26T02:44:56.022Z,70.23
2023-01-26T02:49:16.682Z,69.98
2023-01-26T02:53:19.781Z,70.25
2023-01-26T02:57:22.770Z,69.92
2023-01-26T03:01:27.432Z,70.42
2023-01-26T03:05:30.611Z,70.04
2023-01-26T03:09:33.947Z,69.93
2023-01-26T03:13:36.977Z,69.07
2023-01-26T03:17:41.904Z,68.87
2023-01-26T03:22:02.669Z,69.45
2023-01-26T03:26:23.586Z,70.19
2023-01-26T03:30:27.122Z,70.52
2023-01-26T03:34:31.605Z,70.68
2023-01-26T03:38:35.442Z,70.48
2023-01-26T03:42:57.948Z,70.48
2023-01-26T03:47:19.133Z,70.63
2023-01-26T03:51:41.147Z,69.84
2023-01-26T03:56:01.572Z,70.16
2023-01-26T04:00:06.711Z,70.53
2023-01-26T04:04:30.059Z,70.74
2023-01-26T04:08:34.516Z,70.80
2023-01-26T04:12:37.753Z,70.55
2023-01-26T04:16:58.397Z,70.76
2023-01-26T04:21:21.195Z,70.44
2023-01-26T04:25:25.605Z,71.72
2023-01-26T04:29:28.771Z,70.36
2023-01-26T04:33:31.744Z,70.41
2023-01-26T04:37:35.615Z,71.11
2023-01-26T04:41:42.267Z,70.42
2023-01-26T04:45:45.824Z,70.39
2023-01-26T04:49:49.032Z,70.47
2023-01-26T04:53:52.624Z,70.77
2023-01-26T04:57:58.625Z,70.97
2023-01-26T05:02:02.136Z,70.66
2023-01-26T05:06:05.254Z,70.99
2023-01-26T05:10:09.313Z,71.15
2023-01-26T05:14:14.118Z,71.07
2023-01-26T05:18:17.483Z,70.93
2023-01-26T05:22:20.377Z,70.83
2023-01-26T05:26:24.155Z,71.20
2023-01-26T05:30:28.842Z,70.97
2023-01-26T05:34:33.239Z,70.85
2023-01-26T05:38:36.669Z,70.89
2023-01-26T05:42:39.887Z,71.21
2023-01-26T05:46:42.987Z,71.28
2023-01-26T05:50:47.599Z,70.92
2023-01-26T05:54:50.902Z,71.51
2023-01-26T05:58:54.011Z,70.96
2023-01-26T06:02:57.207Z,70.35
2023-01-26T06:07:01.791Z,70.57
2023-01-26T06:11:05.053Z,70.89
2023-01-26T06:15:09.495Z,70.66
2023-01-26T06:19:12.694Z,70.62
2023-01-26T06:23:17.924Z,70.94
2023-01-26T06:27:22.100Z,71.40
2023-01-26T06:31:26.012Z,71.16
2023-01-26T06:35:29.649Z,71.16
2023-01-26T06:39:34.010Z,70.76
2023-01-26T06:43:37.818Z,70.99
2023-01-26T06:47:46.557Z,71.00
2023-01-26T06:51:57.281Z,71.34
2023-01-26T06:56:01.649Z,71.48
2023-01-26T07:00:06.120Z,70.87
2023-01-26T07:04:10.891Z,70.93
2023-01-26T07:08:14.524Z,70.82
2023-01-26T07:12:18.950Z,71.00
2023-01-26T07:16:22.234Z,71.29
2023-01-26T07:20:25.430Z,71.21
2023-01-26T07:24:29.196Z,70.70
2023-01-26T07:28:34.508Z,70.78
2023-01-26T07:32:37.810Z,70.88
2023-01-26T07:36:41.151Z,70.49
2023-01-26T07:40:44.655Z,70.36
2023-01-26T07:44:49.039Z,70.84
2023-01-26T07:48:52.380Z,70.88
2023-01-26T07:52:55.281Z,70.35
2023-01-26T07:56:58.599Z,70.32
2023-01-26T08:01:11.216Z,70.88
2023-01-26T08:05:14.221Z,71.88
2023-01-26T08:09:17.581Z,69.69
2023-01-26T08:13:30.071Z,69.78
2023-01-26T08:17:38.802Z,69.90
2023-01-26T08:21:42.114Z,70.44
2023-01-26T08:25:45.028Z,70.35
2023-01-26T08:29:48.437Z,69.71
2023-01-26T08:33:54.508Z,69.50
2023-01-26T08:37:57.841Z,69.49
2023-01-26T08:42:00.905Z,70.27
2023-01-26T08:46:04.738Z,70.13
2023-01-26T08:50:10.643Z,69.81
2023-01-26T08:54:13.989Z,69.07
2023-01-26T08:58:17.012Z,69.01
2023-01-26T09:02:20.388Z,69.17
2023-01-26T09:06:25.283Z,68.13
2023-01-26T09:10:28.568Z,68.20
2023-01-26T09:14:31.494Z,69.03
2023-01-26T09:18:35.034Z,69.30
2023-01-26T09:22:39.646Z,68.99
2023-01-26T09:26:42.513Z,69.26
2023-01-26T09:30:45.955Z,69.63
2023-01-26T09:34:49.143Z,69.42
2023-01-26T09:38:54.518Z,69.42
2023-01-26T09:43:06.844Z,67.51
2023-01-26T09:47:18.838Z,68.51
2023-01-26T09:51:28.212Z,68.38
2023-01-26T09:55:32.658Z,68.29
2023-01-26T09:59:41.655Z,68.34
2023-01-26T10:03:51.615Z,67.41
2023-01-26T10:07:55.077Z,66.69
2023-01-26T10:12:03.181Z,67.53
2023-01-26T10:16:09.620Z,68.39
2023-01-26T10:20:29.460Z,68.81
2023-01-26T10:24:35.116Z,68.87
2023-01-26T10:28:40.912Z,67.16
2023-01-26T10:32:47.662Z,68.21
2023-01-26T10:36:50.779Z,68.37
2023-01-26T10:40:54.062Z,68.47
2023-01-26T10:45:00.308Z,68.81
2023-01-26T10:49:15.473Z,68.10
2023-01-26T10:53:20.364Z,68.40
2023-01-26T10:57:29.533Z,68.92
2023-01-26T11:01:53.424Z,67.15
2023-01-26T11:06:07.956Z,67.62
2023-01-26T11:10:26.929Z,68.44
2023-01-26T11:14:31.572Z,67.28
2023-01-26T11:18:46.609Z,68.21
2023-01-26T11:22:56.330Z,68.54
2023-01-26T11:27:28.713Z,68.81
2023-01-26T11:31:43.081Z,68.31
2023-01-26T11:35:54.880Z,68.16
2023-01-26T11:40:06.264Z,68.40
2023-01-26T11:44:25.724Z,67.92
2023-01-26T11:48:36.763Z,67.76
2023-01-26T11:52:52.483Z,67.68
2023-01-26T11:57:07.355Z,67.70
2023-01-26T12:01:16.963Z,67.67
2023-01-26T12:05:25.266Z,67.76
2023-01-26T12:09:37.422Z,67.78
2023-01-26T12:13:44.976Z,65.98
2023-01-26T12:17:59.750Z,66.23
2023-01-26T12:22:11.118Z,65.87
2023-01-26T12:26:18.695Z,66.12
2023-01-26T12:30:30.015Z,66.37
2023-01-26T12:34:35.247Z,65.77
2023-01-26T12:38:49.911Z,65.11
2023-01-26T12:43:07.731Z,65.77
2023-01-26T12:47:19.397Z,64.82
2023-01-26T12:51:28.947Z,64.82
2023-01-26T12:55:37.471Z,64.85
2023-01-26T12:59:47.691Z,64.98
2023-01-26T13:03:56.491Z,64.65
2023-01-26T13:08:00.034Z,63.00
2023-01-26T13:12:03.095Z,62.64
2023-01-26T13:16:34.164Z,63.48
2023-01-26T13:20:48.727Z,63.15
2023-01-26T13:24:57.553Z,63.18
2023-01-26T13:29:33.334Z,64.40
2023-01-26T13:33:53.519Z,64.25
2023-01-26T13:38:03.351Z,65.46
2023-01-26T13:42:18.107Z,65.48
2023-01-26T13:46:29.670Z,65.80
2023-01-26T13:50:38.152Z,66.71
2023-01-26T13:54:42.727Z,66.51
2023-01-26T13:58:45.817Z,64.24
2023-01-26T14:02:50.798Z,66.41
2023-01-26T14:06:59.155Z,64.90
2023-01-26T14:11:06.125Z,65.14
2023-01-26T14:15:24.605Z,65.81
2023-01-26T14:19:29.319Z,65.83
2023-01-26T14:23:37.454Z,66.72
2023-01-26T14:27:42.605Z,66.95
2023-01-26T14:31:48.342Z,66.68
2023-01-26T14:35:58.048Z,66.88
2023-01-26T14:40:20.914Z,67.40
2023-01-26T14:44:24.051Z,67.41
2023-01-26T14:48:36.010Z,67.84
2023-01-26T14:52:41.491Z,68.35
2023-01-26T14:56:49.199Z,68.58
2023-01-26T15:00:52.802Z,68.55
2023-01-26T15:05:00.904Z,68.82
2023-01-26T15:09:06.720Z,69.05
2023-01-26T15:13:22.859Z,68.54
2023-01-26T15:17:38.688Z,68.20
2023-01-26T15:21:43.856Z,68.33
2023-01-26T15:25:47.205Z,68.54
2023-01-26T15:29:59.361Z,67.97
2023-01-26T15:34:02.775Z,69.05
2023-01-26T15:38:10.148Z,69.40
2023-01-26T15:42:15.160Z,69.15
2023-01-26T15:46:19.809Z,69.50
2023-01-26T15:50:28.283Z,69.59
2023-01-26T15:54:31.609Z,69.63
2023-01-26T15:58:36.791Z,69.56
2023-01-26T16:02:41.162Z,69.77
2023-01-26T16:06:44.372Z,69.91
2023-01-26T16:10:48.199Z,70.17
2023-01-26T16:14:51.487Z,69.76
2023-01-26T16:18:56.293Z,70.07
2023-01-26T16:22:59.577Z,69.71
2023-01-26T16:27:02.464Z,70.29
2023-01-26T16:31:13.974Z,70.23
2023-01-26T16:35:21.085Z,70.15
2023-01-26T16:39:24.212Z,70.13
2023-01-26T16:43:28.864Z,70.47
2023-01-26T16:47:32.989Z,70.62
2023-01-26T16:51:41.643Z,70.93
2023-01-26T16:55:44.895Z,70.78
2023-01-26T16:59:47.794Z,70.72
2023-01-26T17:03:51.272Z,70.75
2023-01-26T17:07:55.693Z,70.71
2023-01-26T17:11:58.760Z,70.78
2023-01-26T17:16:02.132Z,71.03
2023-01-26T17:20:18.273Z,70.84
2023-01-26T17:24:23.312Z,71.20
2023-01-26T17:28:26.838Z,71.20
2023-01-26T17:32:29.965Z,71.14
2023-01-26T17:36:33.414Z,70.87
2023-01-26T17:40:38.191Z,71.13
2023-01-26T17:44:41.291Z,70.67
2023-01-26T17:48:45.666Z,71.07
2023-01-26T17:52:49.977Z,71.25
2023-01-26T17:56:55.244Z,71.35
2023-01-26T18:00:58.669Z,71.30
2023-01-26T18:05:01.575Z,70.72
2023-01-26T18:09:04.865Z,71.05
2023-01-26T18:13:09.457Z,70.77
2023-01-26T18:17:12.462Z,70.81
2023-01-26T18:21:17.495Z,71.23
2023-01-26T18:25:21.599Z,70.59
2023-01-26T18:29:26.142Z,71.07
2023-01-26T18:33:29.075Z,70.86
2023-01-26T18:37:33.957Z,70.78
2023-01-26T18:41:38.115Z,70.76
2023-01-26T18:45:44.129Z,70.12
2023-01-26T18:49:47.098Z,70.52
2023-01-26T18:53:50.481Z,70.27
2023-01-26T18:57:55.716Z,70.57
2023-01-26T19:02:00.661Z,70.36
2023-01-26T19:06:04.678Z,70.57
2023-01-26T19:10:08.679Z,70.53
2023-01-26T19:14:11.852Z,70.11
2023-01-26T19:18:17.501Z,70.53
2023-01-26T19:22:20.865Z,69.98
2023-01-26T19:26:26.052Z,70.32
2023-01-26T19:30:29.536Z,70.35
2023-01-26T19:34:35.163Z,70.08
2023-01-26T19:38:40.170Z,70.23
2023-01-26T19:42:43.289Z,70.56
2023-01-26T19:46:46.733Z,70.75
2023-01-26T19:51:01.356Z,70.32
2023-01-26T19:55:04.956Z,70.31
2023-01-26T19:59:10.294Z,69.74
2023-01-26T20:03:13.504Z,69.72
2023-01-26T20:07:18.100Z,69.70
2023-01-26T20:11:25.046Z,69.67
2023-01-26T20:15:28.645Z,69.98
2023-01-26T20:19:34.914Z,70.46
2023-01-26T20:23:48.437Z,70.38
2023-01-26T20:27:57.019Z,70.59
2023-01-26T20:32:01.805Z,70.53
2023-01-26T20:36:08.106Z,70.68
2023-01-26T20:40:14.390Z,70.30
2023-01-26T20:44:18.210Z,70.62
2023-01-26T20:48:21.267Z,70.31
2023-01-26T20:52:25.150Z,70.56
2023-01-26T20:56:30.265Z,70.56
2023-01-26T21:00:36.506Z,70.65
2023-01-26T21:04:40.245Z,70.13
2023-01-26T21:08:43.809Z,70.33
2023-01-26T21:12:48.442Z,70.36
2023-01-26T21:16:51.353Z,70.61
2023-01-26T21:20:58.141Z,70.66
2023-01-26T21:25:01.123Z,70.67
2023-01-26T21:29:06.730Z,70.23
2023-01-26T21:33:09.663Z,70.54
2023-01-26T21:37:13.126Z,70.81
2023-01-26T21:41:35.995Z,70.49
2023-01-26T21:45:56.188Z,70.53
2023-01-26T21:49:59.770Z,70.54
2023-01-26T21:54:02.185Z,70.94
2023-01-26T21:58:37.515Z,71.01
2023-01-26T22:02:41.919Z,70.92
2023-01-26T22:06:46.057Z,70.42
2023-01-26T22:10:54.695Z,70.75
2023-01-26T22:14:57.935Z,70.72
2023-01-26T22:19:02.625Z,70.26
2023-01-26T22:23:05.762Z,70.29
2023-01-26T22:27:09.359Z,70.72
2023-01-26T22:31:12.866Z,70.67
2023-01-26T22:35:17.792Z,70.40
2023-01-26T22:39:20.931Z,70.77
2023-01-26T22:43:24.162Z,70.68
2023-01-26T22:47:27.142Z,70.71
2023-01-26T22:51:33.611Z,70.67
2023-01-26T22:55:40.145Z,70.35
2023-01-26T22:59:43.042Z,70.31
2023-01-26T23:03:47.158Z,70.42
2023-01-26T23:07:51.382Z,70.41
2023-01-26T23:11:54.585Z,70.75
2023-01-26T23:15:57.574Z,70.94
2023-01-26T23:20:01.002Z,70.07
2023-01-26T23:24:06.157Z,70.52
2023-01-26T23:28:09.156Z,70.81
2023-01-26T23:32:12.132Z,70.62
2023-01-26T23:36:16.546Z,70.45
2023-01-26T23:40:20.939Z,70.38
2023-01-26T23:44:24.258Z,70.68
2023-01-26T23:48:27.805Z,70.39
2023-01-26T23:52:31.073Z,70.19
2023-01-26T23:56:35.742Z,69.75
